sensor_id;sensor_type;location;lat;lon;timestamp;P1;durP1;ratioP1;P2;durP2;ratioP2
14100;SDS011;7127;49.372;8.166;2023-07-24T00:00:39;1.83;;;1.60;;
14100;SDS011;7127;49.372;8.166;2023-07-24T00:03:06;1.50;;;1.40;;
14100;SDS011;7127;49.372;8.166;2023-07-24T00:05:33;1.40;;;1.30;;
14100;SDS011;7127;49.372;8.166;2023-07-24T00:08:01;1.73;;;1.63;;
14100;SDS011;7127;49.372;8.166;2023-07-24T00:10:28;2.20;;;1.63;;
14100;SDS011;7127;49.372;8.166;2023-07-24T00:12:55;1.60;;;1.50;;
14100;SDS011;7127;49.372;8.166;2023-07-24T00:15:22;1.53;;;1.43;;
14100;SDS011;7127;49.372;8.166;2023-07-24T00:17:49;1.97;;;1.70;;
14100;SDS011;7127;49.372;8.166;2023-07-24T00:20:15;1.70;;;1.60;;
14100;SDS011;7127;49.372;8.166;2023-07-24T00:22:42;1.70;;;1.60;;
14100;SDS011;7127;49.372;8.166;2023-07-24T00:25:10;1.40;;;1.30;;
14100;SDS011;7127;49.372;8.166;2023-07-24T00:27:37;1.97;;;1.77;;
14100;SDS011;7127;49.372;8.166;2023-07-24T00:30:04;1.63;;;1.53;;
14100;SDS011;7127;49.372;8.166;2023-07-24T00:32:33;1.83;;;1.60;;
14100;SDS011;7127;49.372;8.166;2023-07-24T00:34:59;1.83;;;1.70;;
14100;SDS011;7127;49.372;8.166;2023-07-24T00:37:26;2.13;;;1.70;;
14100;SDS011;7127;49.372;8.166;2023-07-24T00:39:53;1.63;;;1.53;;
14100;SDS011;7127;49.372;8.166;2023-07-24T00:42:21;1.57;;;1.40;;
14100;SDS011;7127;49.372;8.166;2023-07-24T00:44:48;1.70;;;1.60;;
14100;SDS011;7127;49.372;8.166;2023-07-24T00:47:14;2.00;;;1.50;;
14100;SDS011;7127;49.372;8.166;2023-07-24T00:49:42;2.00;;;1.80;;
14100;SDS011;7127;49.372;8.166;2023-07-24T00:52:09;1.73;;;1.60;;
14100;SDS011;7127;49.372;8.166;2023-07-24T00:54:37;2.30;;;1.80;;
14100;SDS011;7127;49.372;8.166;2023-07-24T00:57:05;1.53;;;1.43;;
14100;SDS011;7127;49.372;8.166;2023-07-24T00:59:33;1.60;;;1.50;;
14100;SDS011;7127;49.372;8.166;2023-07-24T01:02:01;1.50;;;1.40;;
14100;SDS011;7127;49.372;8.166;2023-07-24T01:04:28;1.77;;;1.53;;
14100;SDS011;7127;49.372;8.166;2023-07-24T01:06:55;1.70;;;1.60;;
14100;SDS011;7127;49.372;8.166;2023-07-24T01:09:22;3.37;;;1.60;;
14100;SDS011;7127;49.372;8.166;2023-07-24T01:11:50;2.10;;;1.77;;
14100;SDS011;7127;49.372;8.166;2023-07-24T01:14:21;2.93;;;1.50;;
14100;SDS011;7127;49.372;8.166;2023-07-24T01:16:54;2.57;;;1.80;;
14100;SDS011;7127;49.372;8.166;2023-07-24T01:19:26;1.83;;;1.60;;
14100;SDS011;7127;49.372;8.166;2023-07-24T01:22:02;1.50;;;1.40;;
14100;SDS011;7127;49.372;8.166;2023-07-24T01:24:43;1.60;;;1.40;;
14100;SDS011;7127;49.372;8.166;2023-07-24T01:27:21;1.97;;;1.60;;
14100;SDS011;7127;49.372;8.166;2023-07-24T01:29:50;1.70;;;1.60;;
14100;SDS011;7127;49.372;8.166;2023-07-24T01:32:17;1.50;;;1.30;;
14100;SDS011;7127;49.372;8.166;2023-07-24T01:34:44;1.60;;;1.50;;
14100;SDS011;7127;49.372;8.166;2023-07-24T01:37:12;1.90;;;1.70;;
14100;SDS011;7127;49.372;8.166;2023-07-24T01:39:40;1.73;;;1.50;;
14100;SDS011;7127;49.372;8.166;2023-07-24T01:42:07;1.70;;;1.60;;
14100;SDS011;7127;49.372;8.166;2023-07-24T01:44:36;3.60;;;1.50;;
14100;SDS011;7127;49.372;8.166;2023-07-24T01:47:03;1.70;;;1.60;;
14100;SDS011;7127;49.372;8.166;2023-07-24T01:49:30;1.63;;;1.47;;
14100;SDS011;7127;49.372;8.166;2023-07-24T01:51:57;1.60;;;1.50;;
14100;SDS011;7127;49.372;8.166;2023-07-24T01:54:23;1.87;;;1.57;;
14100;SDS011;7127;49.372;8.166;2023-07-24T01:56:51;1.40;;;1.30;;
14100;SDS011;7127;49.372;8.166;2023-07-24T01:59:18;2.03;;;1.73;;
14100;SDS011;7127;49.372;8.166;2023-07-24T02:01:46;1.77;;;1.60;;
14100;SDS011;7127;49.372;8.166;2023-07-24T02:04:13;1.90;;;1.73;;
14100;SDS011;7127;49.372;8.166;2023-07-24T02:06:40;1.63;;;1.53;;
14100;SDS011;7127;49.372;8.166;2023-07-24T02:09:06;2.00;;;1.63;;
14100;SDS011;7127;49.372;8.166;2023-07-24T02:11:33;1.77;;;1.50;;
14100;SDS011;7127;49.372;8.166;2023-07-24T02:14:00;1.70;;;1.60;;
14100;SDS011;7127;49.372;8.166;2023-07-24T02:16:27;2.10;;;1.80;;
14100;SDS011;7127;49.372;8.166;2023-07-24T02:18:55;1.60;;;1.50;;
14100;SDS011;7127;49.372;8.166;2023-07-24T02:21:22;1.40;;;1.30;;
14100;SDS011;7127;49.372;8.166;2023-07-24T02:23:48;1.90;;;1.60;;
14100;SDS011;7127;49.372;8.166;2023-07-24T02:26:15;1.90;;;1.63;;
14100;SDS011;7127;49.372;8.166;2023-07-24T02:28:42;1.80;;;1.60;;
14100;SDS011;7127;49.372;8.166;2023-07-24T02:31:09;1.60;;;1.50;;
14100;SDS011;7127;49.372;8.166;2023-07-24T02:33:36;1.77;;;1.67;;
14100;SDS011;7127;49.372;8.166;2023-07-24T02:36:04;1.70;;;1.60;;
14100;SDS011;7127;49.372;8.166;2023-07-24T02:38:31;3.53;;;1.50;;
14100;SDS011;7127;49.372;8.166;2023-07-24T02:40:57;1.70;;;1.60;;
14100;SDS011;7127;49.372;8.166;2023-07-24T02:43:24;1.90;;;1.70;;
14100;SDS011;7127;49.372;8.166;2023-07-24T02:45:51;3.87;;;1.60;;
14100;SDS011;7127;49.372;8.166;2023-07-24T02:48:18;1.70;;;1.60;;
14100;SDS011;7127;49.372;8.166;2023-07-24T02:50:47;1.50;;;1.40;;
14100;SDS011;7127;49.372;8.166;2023-07-24T02:53:15;1.67;;;1.50;;
14100;SDS011;7127;49.372;8.166;2023-07-24T02:55:43;1.73;;;1.33;;
14100;SDS011;7127;49.372;8.166;2023-07-24T02:58:10;3.50;;;1.70;;
14100;SDS011;7127;49.372;8.166;2023-07-24T03:00:37;1.80;;;1.70;;
14100;SDS011;7127;49.372;8.166;2023-07-24T03:03:04;1.70;;;1.60;;
14100;SDS011;7127;49.372;8.166;2023-07-24T03:05:31;1.80;;;1.70;;
14100;SDS011;7127;49.372;8.166;2023-07-24T03:08:00;1.60;;;1.50;;
14100;SDS011;7127;49.372;8.166;2023-07-24T03:10:28;1.70;;;1.60;;
14100;SDS011;7127;49.372;8.166;2023-07-24T03:12:55;1.50;;;1.40;;
14100;SDS011;7127;49.372;8.166;2023-07-24T03:15:22;1.70;;;1.60;;
14100;SDS011;7127;49.372;8.166;2023-07-24T03:17:49;2.20;;;1.80;;
14100;SDS011;7127;49.372;8.166;2023-07-24T03:20:18;2.07;;;1.77;;
14100;SDS011;7127;49.372;8.166;2023-07-24T03:22:45;1.67;;;1.53;;
14100;SDS011;7127;49.372;8.166;2023-07-24T03:25:12;2.13;;;1.90;;
14100;SDS011;7127;49.372;8.166;2023-07-24T03:27:41;1.77;;;1.67;;
14100;SDS011;7127;49.372;8.166;2023-07-24T03:30:08;2.30;;;1.70;;
14100;SDS011;7127;49.372;8.166;2023-07-24T03:32:35;2.40;;;1.83;;
14100;SDS011;7127;49.372;8.166;2023-07-24T03:35:03;2.00;;;1.80;;
14100;SDS011;7127;49.372;8.166;2023-07-24T03:37:30;1.73;;;1.63;;
14100;SDS011;7127;49.372;8.166;2023-07-24T03:39:57;1.90;;;1.50;;
14100;SDS011;7127;49.372;8.166;2023-07-24T03:42:24;2.70;;;2.00;;
14100;SDS011;7127;49.372;8.166;2023-07-24T03:44:54;2.00;;;1.80;;
14100;SDS011;7127;49.372;8.166;2023-07-24T03:47:21;1.70;;;1.60;;
14100;SDS011;7127;49.372;8.166;2023-07-24T03:49:48;1.53;;;1.33;;
14100;SDS011;7127;49.372;8.166;2023-07-24T03:52:15;1.70;;;1.47;;
14100;SDS011;7127;49.372;8.166;2023-07-24T03:54:41;1.97;;;1.63;;
14100;SDS011;7127;49.372;8.166;2023-07-24T03:57:08;2.13;;;1.50;;
14100;SDS011;7127;49.372;8.166;2023-07-24T03:59:35;1.80;;;1.70;;
14100;SDS011;7127;49.372;8.166;2023-07-24T04:02:04;2.07;;;1.80;;
14100;SDS011;7127;49.372;8.166;2023-07-24T04:04:30;2.00;;;1.87;;
14100;SDS011;7127;49.372;8.166;2023-07-24T04:06:57;2.07;;;1.60;;
14100;SDS011;7127;49.372;8.166;2023-07-24T04:09:24;2.10;;;1.90;;
14100;SDS011;7127;49.372;8.166;2023-07-24T04:11:51;1.83;;;1.67;;
14100;SDS011;7127;49.372;8.166;2023-07-24T04:14:18;2.60;;;2.00;;
14100;SDS011;7127;49.372;8.166;2023-07-24T04:16:45;1.90;;;1.70;;
14100;SDS011;7127;49.372;8.166;2023-07-24T04:19:13;2.03;;;1.83;;
14100;SDS011;7127;49.372;8.166;2023-07-24T04:21:40;2.20;;;1.80;;
14100;SDS011;7127;49.372;8.166;2023-07-24T04:24:08;2.03;;;1.83;;
14100;SDS011;7127;49.372;8.166;2023-07-24T04:26:35;2.00;;;1.80;;
14100;SDS011;7127;49.372;8.166;2023-07-24T04:29:02;2.30;;;1.90;;
14100;SDS011;7127;49.372;8.166;2023-07-24T04:31:28;2.37;;;1.67;;
14100;SDS011;7127;49.372;8.166;2023-07-24T04:33:55;1.83;;;1.53;;
14100;SDS011;7127;49.372;8.166;2023-07-24T04:36:23;2.00;;;1.67;;
14100;SDS011;7127;49.372;8.166;2023-07-24T04:38:50;1.70;;;1.60;;
14100;SDS011;7127;49.372;8.166;2023-07-24T04:41:17;2.00;;;1.80;;
14100;SDS011;7127;49.372;8.166;2023-07-24T04:43:44;1.80;;;1.70;;
14100;SDS011;7127;49.372;8.166;2023-07-24T04:46:11;2.20;;;2.00;;
14100;SDS011;7127;49.372;8.166;2023-07-24T04:48:37;1.90;;;1.80;;
14100;SDS011;7127;49.372;8.166;2023-07-24T04:51:04;2.00;;;1.77;;
14100;SDS011;7127;49.372;8.166;2023-07-24T04:53:32;2.10;;;1.90;;
14100;SDS011;7127;49.372;8.166;2023-07-24T04:55:59;2.43;;;2.00;;
14100;SDS011;7127;49.372;8.166;2023-07-24T04:58:26;2.00;;;1.83;;
14100;SDS011;7127;49.372;8.166;2023-07-24T05:00:53;3.13;;;2.27;;
14100;SDS011;7127;49.372;8.166;2023-07-24T05:03:19;2.90;;;2.13;;
14100;SDS011;7127;49.372;8.166;2023-07-24T05:05:47;2.33;;;2.00;;
14100;SDS011;7127;49.372;8.166;2023-07-24T05:08:15;2.07;;;1.73;;
14100;SDS011;7127;49.372;8.166;2023-07-24T05:10:43;2.40;;;2.00;;
14100;SDS011;7127;49.372;8.166;2023-07-24T05:13:10;2.37;;;2.13;;
14100;SDS011;7127;49.372;8.166;2023-07-24T05:15:37;2.67;;;2.30;;
14100;SDS011;7127;49.372;8.166;2023-07-24T05:18:04;2.30;;;2.03;;
14100;SDS011;7127;49.372;8.166;2023-07-24T05:20:31;2.57;;;2.10;;
14100;SDS011;7127;49.372;8.166;2023-07-24T05:22:58;2.10;;;1.90;;
14100;SDS011;7127;49.372;8.166;2023-07-24T05:25:25;2.40;;;2.20;;
14100;SDS011;7127;49.372;8.166;2023-07-24T05:27:53;2.83;;;2.10;;
14100;SDS011;7127;49.372;8.166;2023-07-24T05:30:20;2.20;;;2.00;;
14100;SDS011;7127;49.372;8.166;2023-07-24T05:32:47;1.83;;;1.67;;
14100;SDS011;7127;49.372;8.166;2023-07-24T05:35:13;2.70;;;2.20;;
14100;SDS011;7127;49.372;8.166;2023-07-24T05:37:40;2.40;;;2.20;;
14100;SDS011;7127;49.372;8.166;2023-07-24T05:40:07;2.70;;;2.20;;
14100;SDS011;7127;49.372;8.166;2023-07-24T05:42:35;2.57;;;2.00;;
14100;SDS011;7127;49.372;8.166;2023-07-24T05:45:09;2.43;;;2.13;;
14100;SDS011;7127;49.372;8.166;2023-07-24T05:47:37;2.43;;;2.23;;
14100;SDS011;7127;49.372;8.166;2023-07-24T05:50:04;2.33;;;2.10;;
14100;SDS011;7127;49.372;8.166;2023-07-24T05:52:32;2.50;;;1.63;;
14100;SDS011;7127;49.372;8.166;2023-07-24T05:54:59;2.20;;;2.00;;
14100;SDS011;7127;49.372;8.166;2023-07-24T05:57:25;3.20;;;2.10;;
14100;SDS011;7127;49.372;8.166;2023-07-24T05:59:52;1.63;;;1.53;;
14100;SDS011;7127;49.372;8.166;2023-07-24T06:02:21;2.10;;;1.73;;
14100;SDS011;7127;49.372;8.166;2023-07-24T06:04:48;2.30;;;2.10;;
14100;SDS011;7127;49.372;8.166;2023-07-24T06:07:15;2.00;;;1.80;;
14100;SDS011;7127;49.372;8.166;2023-07-24T06:09:41;2.13;;;1.90;;
14100;SDS011;7127;49.372;8.166;2023-07-24T06:12:08;1.90;;;1.70;;
14100;SDS011;7127;49.372;8.166;2023-07-24T06:14:35;2.23;;;2.03;;
14100;SDS011;7127;49.372;8.166;2023-07-24T06:17:02;2.40;;;1.87;;
14100;SDS011;7127;49.372;8.166;2023-07-24T06:19:31;2.03;;;1.90;;
14100;SDS011;7127;49.372;8.166;2023-07-24T06:21:57;4.90;;;2.10;;
14100;SDS011;7127;49.372;8.166;2023-07-24T06:24:24;2.20;;;2.00;;
14100;SDS011;7127;49.372;8.166;2023-07-24T06:26:51;2.07;;;1.87;;
14100;SDS011;7127;49.372;8.166;2023-07-24T06:29:18;2.10;;;1.90;;
14100;SDS011;7127;49.372;8.166;2023-07-24T06:31:45;2.30;;;1.87;;
14100;SDS011;7127;49.372;8.166;2023-07-24T06:34:11;2.00;;;1.80;;
14100;SDS011;7127;49.372;8.166;2023-07-24T06:36:40;1.93;;;1.73;;
14100;SDS011;7127;49.372;8.166;2023-07-24T06:39:07;2.37;;;2.00;;
14100;SDS011;7127;49.372;8.166;2023-07-24T06:41:34;2.10;;;1.90;;
14100;SDS011;7127;49.372;8.166;2023-07-24T06:44:01;2.97;;;2.00;;
14100;SDS011;7127;49.372;8.166;2023-07-24T06:46:28;2.30;;;2.10;;
14100;SDS011;7127;49.372;8.166;2023-07-24T06:48:55;2.30;;;2.10;;
14100;SDS011;7127;49.372;8.166;2023-07-24T06:51:21;1.80;;;1.70;;
14100;SDS011;7127;49.372;8.166;2023-07-24T06:53:50;1.70;;;1.60;;
14100;SDS011;7127;49.372;8.166;2023-07-24T06:56:16;2.20;;;2.00;;
14100;SDS011;7127;49.372;8.166;2023-07-24T06:58:43;2.27;;;2.00;;
14100;SDS011;7127;49.372;8.166;2023-07-24T07:01:10;2.88;;;2.17;;
14100;SDS011;7127;49.372;8.166;2023-07-24T07:03:37;2.45;;;2.25;;
14100;SDS011;7127;49.372;8.166;2023-07-24T07:06:04;4.03;;;2.40;;
14100;SDS011;7127;49.372;8.166;2023-07-24T07:08:31;4.30;;;2.00;;
14100;SDS011;7127;49.372;8.166;2023-07-24T07:11:00;2.30;;;2.03;;
14100;SDS011;7127;49.372;8.166;2023-07-24T07:13:27;2.67;;;2.47;;
14100;SDS011;7127;49.372;8.166;2023-07-24T07:15:54;2.95;;;2.65;;
14100;SDS011;7127;49.372;8.166;2023-07-24T07:18:21;3.65;;;2.38;;
14100;SDS011;7127;49.372;8.166;2023-07-24T07:20:48;2.92;;;2.55;;
14100;SDS011;7127;49.372;8.166;2023-07-24T07:23:16;2.72;;;2.20;;
14100;SDS011;7127;49.372;8.166;2023-07-24T07:25:43;2.42;;;2.20;;
14100;SDS011;7127;49.372;8.166;2023-07-24T07:28:12;2.70;;;2.30;;
14100;SDS011;7127;49.372;8.166;2023-07-24T07:30:39;2.22;;;2.03;;
14100;SDS011;7127;49.372;8.166;2023-07-24T07:33:06;2.28;;;2.00;;
14100;SDS011;7127;49.372;8.166;2023-07-24T07:35:33;4.05;;;2.08;;
14100;SDS011;7127;49.372;8.166;2023-07-24T07:38:00;2.75;;;2.20;;
14100;SDS011;7127;49.372;8.166;2023-07-24T07:40:28;2.60;;;2.25;;
14100;SDS011;7127;49.372;8.166;2023-07-24T07:42:56;4.88;;;2.50;;
14100;SDS011;7127;49.372;8.166;2023-07-24T07:45:24;2.95;;;2.50;;
14100;SDS011;7127;49.372;8.166;2023-07-24T07:47:51;2.80;;;2.53;;
14100;SDS011;7127;49.372;8.166;2023-07-24T07:50:18;2.33;;;2.13;;
14100;SDS011;7127;49.372;8.166;2023-07-24T07:52:45;2.58;;;2.00;;
14100;SDS011;7127;49.372;8.166;2023-07-24T07:55:15;2.50;;;2.15;;
14100;SDS011;7127;49.372;8.166;2023-07-24T07:57:42;2.10;;;1.90;;
14100;SDS011;7127;49.372;8.166;2023-07-24T08:00:09;3.05;;;2.40;;
14100;SDS011;7127;49.372;8.166;2023-07-24T08:02:38;2.72;;;2.13;;
14100;SDS011;7127;49.372;8.166;2023-07-24T08:05:06;2.08;;;1.88;;
14100;SDS011;7127;49.372;8.166;2023-07-24T08:07:33;2.45;;;1.98;;
14100;SDS011;7127;49.372;8.166;2023-07-24T08:10:00;2.88;;;2.25;;
14100;SDS011;7127;49.372;8.166;2023-07-24T08:12:27;3.05;;;2.00;;
14100;SDS011;7127;49.372;8.166;2023-07-24T08:14:55;2.75;;;2.15;;
14100;SDS011;7127;49.372;8.166;2023-07-24T08:17:22;2.83;;;2.17;;
14100;SDS011;7127;49.372;8.166;2023-07-24T08:19:50;2.20;;;2.00;;
14100;SDS011;7127;49.372;8.166;2023-07-24T08:22:17;2.40;;;2.20;;
14100;SDS011;7127;49.372;8.166;2023-07-24T08:24:45;2.50;;;2.00;;
14100;SDS011;7127;49.372;8.166;2023-07-24T08:27:12;2.40;;;2.10;;
14100;SDS011;7127;49.372;8.166;2023-07-24T08:29:38;2.75;;;2.50;;
14100;SDS011;7127;49.372;8.166;2023-07-24T08:32:05;2.05;;;1.83;;
14100;SDS011;7127;49.372;8.166;2023-07-24T08:34:33;2.45;;;2.17;;
14100;SDS011;7127;49.372;8.166;2023-07-24T08:37:01;1.85;;;1.75;;
14100;SDS011;7127;49.372;8.166;2023-07-24T08:39:28;2.38;;;2.05;;
14100;SDS011;7127;49.372;8.166;2023-07-24T08:41:56;2.58;;;2.10;;
14100;SDS011;7127;49.372;8.166;2023-07-24T08:44:23;3.30;;;2.03;;
14100;SDS011;7127;49.372;8.166;2023-07-24T08:46:56;2.20;;;1.92;;
14100;SDS011;7127;49.372;8.166;2023-07-24T08:49:23;2.60;;;2.10;;
14100;SDS011;7127;49.372;8.166;2023-07-24T08:51:52;2.80;;;2.05;;
14100;SDS011;7127;49.372;8.166;2023-07-24T08:54:21;2.08;;;1.83;;
14100;SDS011;7127;49.372;8.166;2023-07-24T08:56:50;2.20;;;2.00;;
14100;SDS011;7127;49.372;8.166;2023-07-24T08:59:17;2.28;;;1.77;;
14100;SDS011;7127;49.372;8.166;2023-07-24T09:01:45;1.92;;;1.60;;
14100;SDS011;7127;49.372;8.166;2023-07-24T09:04:13;2.40;;;2.08;;
14100;SDS011;7127;49.372;8.166;2023-07-24T09:06:41;2.88;;;2.22;;
14100;SDS011;7127;49.372;8.166;2023-07-24T09:09:13;2.13;;;1.80;;
14100;SDS011;7127;49.372;8.166;2023-07-24T09:11:48;3.55;;;2.15;;
14100;SDS011;7127;49.372;8.166;2023-07-24T09:14:20;2.10;;;1.90;;
14100;SDS011;7127;49.372;8.166;2023-07-24T09:16:48;2.22;;;2.00;;
14100;SDS011;7127;49.372;8.166;2023-07-24T09:19:18;2.17;;;1.88;;
14100;SDS011;7127;49.372;8.166;2023-07-24T09:21:46;2.25;;;1.65;;
14100;SDS011;7127;49.372;8.166;2023-07-24T09:24:14;2.45;;;2.00;;
14100;SDS011;7127;49.372;8.166;2023-07-24T09:26:49;2.20;;;2.00;;
14100;SDS011;7127;49.372;8.166;2023-07-24T09:29:17;3.03;;;1.83;;
14100;SDS011;7127;49.372;8.166;2023-07-24T09:31:45;2.08;;;1.85;;
14100;SDS011;7127;49.372;8.166;2023-07-24T09:34:18;2.00;;;1.80;;
14100;SDS011;7127;49.372;8.166;2023-07-24T09:36:45;2.00;;;1.80;;
14100;SDS011;7127;49.372;8.166;2023-07-24T09:39:12;1.85;;;1.75;;
14100;SDS011;7127;49.372;8.166;2023-07-24T09:41:40;2.45;;;1.70;;
14100;SDS011;7127;49.372;8.166;2023-07-24T09:44:11;1.88;;;1.77;;
14100;SDS011;7127;49.372;8.166;2023-07-24T09:46:38;1.90;;;1.80;;
14100;SDS011;7127;49.372;8.166;2023-07-24T09:49:07;2.33;;;1.90;;
14100;SDS011;7127;49.372;8.166;2023-07-24T09:51:36;2.40;;;2.13;;
14100;SDS011;7127;49.372;8.166;2023-07-24T09:54:06;2.08;;;1.70;;
14100;SDS011;7127;49.372;8.166;2023-07-24T09:56:38;2.50;;;1.90;;
14100;SDS011;7127;49.372;8.166;2023-07-24T09:59:06;2.55;;;2.17;;
14100;SDS011;7127;49.372;8.166;2023-07-24T10:01:35;2.03;;;1.83;;
14100;SDS011;7127;49.372;8.166;2023-07-24T10:04:04;2.30;;;2.10;;
14100;SDS011;7127;49.372;8.166;2023-07-24T10:06:34;2.45;;;2.20;;
14100;SDS011;7127;49.372;8.166;2023-07-24T10:09:02;2.13;;;1.92;;
14100;SDS011;7127;49.372;8.166;2023-07-24T10:11:29;1.70;;;1.60;;
14100;SDS011;7127;49.372;8.166;2023-07-24T10:13:56;2.30;;;2.10;;
14100;SDS011;7127;49.372;8.166;2023-07-24T10:16:25;2.22;;;1.98;;
14100;SDS011;7127;49.372;8.166;2023-07-24T10:18:52;1.98;;;1.77;;
14100;SDS011;7127;49.372;8.166;2023-07-24T10:21:25;2.13;;;1.92;;
14100;SDS011;7127;49.372;8.166;2023-07-24T10:23:53;2.83;;;1.95;;
14100;SDS011;7127;49.372;8.166;2023-07-24T10:26:24;2.30;;;2.00;;
14100;SDS011;7127;49.372;8.166;2023-07-24T10:28:51;2.17;;;1.98;;
14100;SDS011;7127;49.372;8.166;2023-07-24T10:31:21;2.35;;;2.15;;
14100;SDS011;7127;49.372;8.166;2023-07-24T10:33:52;2.90;;;2.03;;
14100;SDS011;7127;49.372;8.166;2023-07-24T10:36:20;1.98;;;1.75;;
14100;SDS011;7127;49.372;8.166;2023-07-24T10:38:52;2.80;;;1.80;;
14100;SDS011;7127;49.372;8.166;2023-07-24T10:41:20;1.80;;;1.70;;
14100;SDS011;7127;49.372;8.166;2023-07-24T10:43:48;1.98;;;1.77;;
14100;SDS011;7127;49.372;8.166;2023-07-24T10:46:17;2.17;;;1.98;;
14100;SDS011;7127;49.372;8.166;2023-07-24T10:48:45;1.90;;;1.75;;
14100;SDS011;7127;49.372;8.166;2023-07-24T10:51:15;2.17;;;1.75;;
14100;SDS011;7127;49.372;8.166;2023-07-24T10:53:44;2.20;;;2.00;;
14100;SDS011;7127;49.372;8.166;2023-07-24T10:56:12;2.50;;;2.30;;
14100;SDS011;7127;49.372;8.166;2023-07-24T10:58:40;2.58;;;2.38;;
14100;SDS011;7127;49.372;8.166;2023-07-24T11:01:07;2.58;;;2.22;;
14100;SDS011;7127;49.372;8.166;2023-07-24T11:03:36;2.38;;;2.17;;
14100;SDS011;7127;49.372;8.166;2023-07-24T11:06:03;2.42;;;2.22;;
14100;SDS011;7127;49.372;8.166;2023-07-24T11:08:32;2.50;;;2.30;;
14100;SDS011;7127;49.372;8.166;2023-07-24T11:11:01;3.10;;;2.30;;
14100;SDS011;7127;49.372;8.166;2023-07-24T11:13:29;2.85;;;2.35;;
14100;SDS011;7127;49.372;8.166;2023-07-24T11:15:56;2.40;;;2.13;;
14100;SDS011;7127;49.372;8.166;2023-07-24T11:18:31;3.42;;;2.15;;
14100;SDS011;7127;49.372;8.166;2023-07-24T11:20:58;3.10;;;2.50;;
14100;SDS011;7127;49.372;8.166;2023-07-24T11:23:25;2.63;;;2.13;;
14100;SDS011;7127;49.372;8.166;2023-07-24T11:25:54;3.88;;;2.70;;
14100;SDS011;7127;49.372;8.166;2023-07-24T11:28:21;2.83;;;2.35;;
14100;SDS011;7127;49.372;8.166;2023-07-24T11:30:48;2.80;;;2.35;;
14100;SDS011;7127;49.372;8.166;2023-07-24T11:33:16;3.83;;;2.90;;
14100;SDS011;7127;49.372;8.166;2023-07-24T11:35:45;2.90;;;2.47;;
14100;SDS011;7127;49.372;8.166;2023-07-24T11:38:13;3.55;;;2.70;;
14100;SDS011;7127;49.372;8.166;2023-07-24T11:40:40;2.70;;;2.38;;
14100;SDS011;7127;49.372;8.166;2023-07-24T11:43:15;2.80;;;2.60;;
14100;SDS011;7127;49.372;8.166;2023-07-24T11:45:43;2.83;;;2.50;;
14100;SDS011;7127;49.372;8.166;2023-07-24T11:48:12;2.60;;;2.40;;
14100;SDS011;7127;49.372;8.166;2023-07-24T11:50:42;2.67;;;2.47;;
14100;SDS011;7127;49.372;8.166;2023-07-24T11:53:18;2.85;;;2.58;;
14100;SDS011;7127;49.372;8.166;2023-07-24T11:55:47;3.08;;;2.75;;
14100;SDS011;7127;49.372;8.166;2023-07-24T11:58:17;4.65;;;2.95;;
14100;SDS011;7127;49.372;8.166;2023-07-24T12:00:46;5.07;;;2.80;;
14100;SDS011;7127;49.372;8.166;2023-07-24T12:03:15;4.07;;;2.75;;
14100;SDS011;7127;49.372;8.166;2023-07-24T12:05:47;3.05;;;2.75;;
14100;SDS011;7127;49.372;8.166;2023-07-24T12:08:15;3.60;;;2.78;;
14100;SDS011;7127;49.372;8.166;2023-07-24T12:10:44;2.58;;;2.33;;
14100;SDS011;7127;49.372;8.166;2023-07-24T12:13:11;3.20;;;2.90;;
14100;SDS011;7127;49.372;8.166;2023-07-24T12:15:40;4.00;;;2.80;;
14100;SDS011;7127;49.372;8.166;2023-07-24T12:18:07;3.75;;;2.70;;
14100;SDS011;7127;49.372;8.166;2023-07-24T12:20:34;3.88;;;3.10;;
14100;SDS011;7127;49.372;8.166;2023-07-24T12:23:01;3.38;;;3.03;;
14100;SDS011;7127;49.372;8.166;2023-07-24T12:25:28;3.05;;;2.63;;
14100;SDS011;7127;49.372;8.166;2023-07-24T12:27:56;3.80;;;2.97;;
14100;SDS011;7127;49.372;8.166;2023-07-24T12:30:23;2.85;;;2.45;;
14100;SDS011;7127;49.372;8.166;2023-07-24T12:32:51;2.65;;;2.45;;
14100;SDS011;7127;49.372;8.166;2023-07-24T12:35:19;3.20;;;2.90;;
14100;SDS011;7127;49.372;8.166;2023-07-24T12:37:45;3.20;;;2.80;;
14100;SDS011;7127;49.372;8.166;2023-07-24T12:40:12;3.10;;;2.80;;
14100;SDS011;7127;49.372;8.166;2023-07-24T12:42:40;3.10;;;2.63;;
14100;SDS011;7127;49.372;8.166;2023-07-24T12:45:07;3.30;;;2.90;;
14100;SDS011;7127;49.372;8.166;2023-07-24T12:47:35;3.03;;;2.72;;
14100;SDS011;7127;49.372;8.166;2023-07-24T12:50:03;3.03;;;2.72;;
14100;SDS011;7127;49.372;8.166;2023-07-24T12:52:31;3.38;;;3.08;;
14100;SDS011;7127;49.372;8.166;2023-07-24T12:54:58;3.30;;;3.00;;
14100;SDS011;7127;49.372;8.166;2023-07-24T12:57:25;3.30;;;3.00;;
14100;SDS011;7127;49.372;8.166;2023-07-24T12:59:52;2.88;;;2.53;;
14100;SDS011;7127;49.372;8.166;2023-07-24T13:02:19;3.00;;;2.50;;
14100;SDS011;7127;49.372;8.166;2023-07-24T13:04:46;2.67;;;2.47;;
14100;SDS011;7127;49.372;8.166;2023-07-24T13:07:14;2.47;;;2.28;;
14100;SDS011;7127;49.372;8.166;2023-07-24T13:09:42;3.22;;;2.88;;
14100;SDS011;7127;49.372;8.166;2023-07-24T13:12:08;2.85;;;2.60;;
14100;SDS011;7127;49.372;8.166;2023-07-24T13:14:35;2.80;;;2.50;;
14100;SDS011;7127;49.372;8.166;2023-07-24T13:17:03;3.00;;;2.63;;
14100;SDS011;7127;49.372;8.166;2023-07-24T13:19:30;2.88;;;2.67;;
14100;SDS011;7127;49.372;8.166;2023-07-24T13:21:57;3.10;;;2.80;;
14100;SDS011;7127;49.372;8.166;2023-07-24T13:24:25;3.35;;;2.67;;
14100;SDS011;7127;49.372;8.166;2023-07-24T13:26:52;3.53;;;3.20;;
14100;SDS011;7127;49.372;8.166;2023-07-24T13:29:19;2.95;;;2.70;;
14100;SDS011;7127;49.372;8.166;2023-07-24T13:31:46;3.20;;;2.80;;
14100;SDS011;7127;49.372;8.166;2023-07-24T13:34:15;3.85;;;2.88;;
14100;SDS011;7127;49.372;8.166;2023-07-24T13:36:44;3.33;;;2.85;;
14100;SDS011;7127;49.372;8.166;2023-07-24T13:39:11;3.10;;;2.58;;
14100;SDS011;7127;49.372;8.166;2023-07-24T13:41:39;2.90;;;2.60;;
14100;SDS011;7127;49.372;8.166;2023-07-24T13:44:06;3.05;;;2.75;;
14100;SDS011;7127;49.372;8.166;2023-07-24T13:46:34;2.63;;;2.42;;
14100;SDS011;7127;49.372;8.166;2023-07-24T13:49:01;4.07;;;3.40;;
14100;SDS011;7127;49.372;8.166;2023-07-24T13:51:28;3.45;;;2.78;;
14100;SDS011;7127;49.372;8.166;2023-07-24T13:53:55;4.20;;;2.90;;
14100;SDS011;7127;49.372;8.166;2023-07-24T13:56:21;5.03;;;2.97;;
14100;SDS011;7127;49.372;8.166;2023-07-24T13:58:50;5.00;;;2.70;;
14100;SDS011;7127;49.372;8.166;2023-07-24T14:01:17;4.07;;;2.40;;
14100;SDS011;7127;49.372;8.166;2023-07-24T14:03:44;2.78;;;2.33;;
14100;SDS011;7127;49.372;8.166;2023-07-24T14:06:10;3.92;;;2.70;;
14100;SDS011;7127;49.372;8.166;2023-07-24T14:08:38;4.28;;;2.88;;
14100;SDS011;7127;49.372;8.166;2023-07-24T14:11:05;4.50;;;3.40;;
14100;SDS011;7127;49.372;8.166;2023-07-24T14:13:31;3.00;;;2.70;;
14100;SDS011;7127;49.372;8.166;2023-07-24T14:16:00;3.67;;;2.90;;
14100;SDS011;7127;49.372;8.166;2023-07-24T14:18:27;2.88;;;2.50;;
14100;SDS011;7127;49.372;8.166;2023-07-24T14:20:53;2.85;;;2.55;;
14100;SDS011;7127;49.372;8.166;2023-07-24T14:23:21;2.67;;;2.45;;
14100;SDS011;7127;49.372;8.166;2023-07-24T14:25:48;2.53;;;2.33;;
14100;SDS011;7127;49.372;8.166;2023-07-24T14:28:15;2.75;;;1.90;;
14100;SDS011;7127;49.372;8.166;2023-07-24T14:30:42;2.30;;;1.90;;
14100;SDS011;7127;49.372;8.166;2023-07-24T14:33:11;2.83;;;2.20;;
14100;SDS011;7127;49.372;8.166;2023-07-24T14:35:37;2.42;;;2.22;;
14100;SDS011;7127;49.372;8.166;2023-07-24T14:38:04;2.40;;;2.05;;
14100;SDS011;7127;49.372;8.166;2023-07-24T14:40:31;2.20;;;2.00;;
14100;SDS011;7127;49.372;8.166;2023-07-24T14:42:58;2.20;;;2.00;;
14100;SDS011;7127;49.372;8.166;2023-07-24T14:45:25;1.88;;;1.77;;
14100;SDS011;7127;49.372;8.166;2023-07-24T14:47:52;1.88;;;1.70;;
14100;SDS011;7127;49.372;8.166;2023-07-24T14:50:21;2.00;;;1.80;;
14100;SDS011;7127;49.372;8.166;2023-07-24T14:52:48;2.13;;;1.80;;
14100;SDS011;7127;49.372;8.166;2023-07-24T14:55:15;1.90;;;1.70;;
14100;SDS011;7127;49.372;8.166;2023-07-24T14:57:45;1.73;;;1.58;;
14100;SDS011;7127;49.372;8.166;2023-07-24T15:00:15;1.52;;;1.35;;
14100;SDS011;7127;49.372;8.166;2023-07-24T15:02:46;2.22;;;1.50;;